Silverstone, North Carolina
Current Conditions -  °F | °C
As of 1:35 PM on Saturday 25 Oct 2014 (Local Time) from KTNB Reporting Station
Clear Clear  
Wind Chill: 62°   Ceiling: Unl
Heat Index: 62°   Visibility: 10mi
Dew Point: 20°   Wind: 18mph
Humidity: 20%   Direction: 290°WNW
Pressure: 30.05"   Gusts: 25mph
Location:  36.3301°N, 81.7398°W
Report Text: KTNB 251735Z AUTO 29016G22KT 10SM CLR 17/M07 A3005 RMK AO2 T01651068
Loading
Personal Weather Stations






























Interactive Weather Map
Tropical Storm Tracking
New forecast layout! Learn more

10-Day Weather Forecast

Advertisements
Track Severe Weather on mobile